Time;durP1;ratioP1;P1;durP2;ratioP2;P2;SDS_P1;SDS_P2;PMS_P1;PMS_P2;Temp;Humidity;BMP_temperature;BMP_pressure;BME280_temperature;BME280_humidity;BME280_pressure;Samples;Min_cycle;Max_cycle;Signal;HPM_P1;HPM_P2
2023/09/23 00:02:18;;;;;;;22.90;19.35;;;;;;;9.96;100.00;100621.69;5033795;28;20037;-63
2023/09/23 00:04:44;;;;;;;23.02;18.92;;;;;;;9.93;100.00;100620.34;5024754;28;20052;-63
2023/09/23 00:07:09;;;;;;;23.30;19.85;;;;;;;9.92;100.00;100623.44;5019470;28;20101;-62
2023/09/23 00:09:36;;;;;;;23.63;20.38;;;;;;;9.87;100.00;100618.81;5020658;28;20041;-62
2023/09/23 00:12:02;;;;;;;24.73;20.85;;;;;;;9.84;100.00;100628.53;5020996;28;20124;-63
2023/09/23 00:14:28;;;;;;;25.65;21.25;;;;;;;9.81;100.00;100623.66;4994159;28;20098;-63
2023/09/23 00:16:54;;;;;;;26.73;21.20;;;;;;;9.78;100.00;100615.13;5016033;28;20038;-62
2023/09/23 00:19:19;;;;;;;25.42;21.15;;;;;;;9.75;100.00;100613.78;5011787;28;20025;-62
2023/09/23 00:21:45;;;;;;;26.42;22.58;;;;;;;9.74;100.00;100625.16;5021616;28;20025;-65
2023/09/23 00:24:13;;;;;;;26.98;22.25;;;;;;;9.72;100.00;100625.47;5022018;28;20450;-63
2023/09/23 00:26:38;;;;;;;25.55;21.05;;;;;;;9.73;100.00;100627.09;5014715;28;20373;-63
2023/09/23 00:29:04;;;;;;;27.20;22.58;;;;;;;9.71;100.00;100623.84;5019888;28;20025;-63
2023/09/23 00:31:29;;;;;;;28.30;22.33;;;;;;;9.75;100.00;100629.56;5030940;28;20132;-62
2023/09/23 00:33:55;;;;;;;27.15;23.38;;;;;;;9.73;100.00;100632.63;5028189;28;20034;-62
2023/09/23 00:36:21;;;;;;;27.42;23.00;;;;;;;9.72;100.00;100636.53;5012249;28;20026;-62
2023/09/23 00:38:47;;;;;;;27.95;23.83;;;;;;;9.70;100.00;100641.53;5013494;28;20026;-62
2023/09/23 00:41:12;;;;;;;29.00;24.27;;;;;;;9.71;100.00;100634.88;5002198;28;20040;-62
2023/09/23 00:43:38;;;;;;;28.77;24.48;;;;;;;9.72;100.00;100643.97;5023312;28;20030;-63
2023/09/23 00:46:05;;;;;;;29.50;24.70;;;;;;;9.71;100.00;100648.69;5031099;28;20021;-63
2023/09/23 00:48:38;;;;;;;29.10;25.38;;;;;;;9.73;100.00;100656.66;5027291;28;20048;-62
2023/09/23 00:51:03;;;;;;;30.58;25.63;;;;;;;9.73;100.00;100653.91;5021463;28;20132;-62
2023/09/23 00:53:29;;;;;;;30.85;25.63;;;;;;;9.77;100.00;100650.22;5011306;28;20033;-62
2023/09/23 00:55:57;;;;;;;31.15;26.42;;;;;;;9.80;100.00;100644.09;5026906;28;20018;-63
2023/09/23 00:58:24;;;;;;;31.17;25.60;;;;;;;9.81;100.00;100648.50;5026039;28;20121;-63
2023/09/23 01:00:51;;;;;;;30.00;25.15;;;;;;;9.86;100.00;100649.50;5027837;28;20087;-63
2023/09/23 01:03:17;;;;;;;31.83;26.20;;;;;;;9.88;100.00;100655.56;5020800;28;20041;-63
2023/09/23 01:05:46;;;;;;;30.00;25.15;;;;;;;9.87;100.00;100651.16;5017164;28;20038;-63
2023/09/23 01:08:25;;;;;;;31.50;25.80;;;;;;;9.88;100.00;100655.56;5011583;28;20057;-63
2023/09/23 01:10:50;;;;;;;30.02;24.95;;;;;;;9.89;100.00;100651.69;5011218;28;20465;-62
2023/09/23 01:13:23;;;;;;;30.05;24.08;;;;;;;9.88;100.00;100650.03;5024550;28;20067;-63
2023/09/23 01:15:49;;;;;;;29.63;24.52;;;;;;;9.89;100.00;100663.53;5023384;28;20029;-63
2023/09/23 01:18:15;;;;;;;28.70;23.63;;;;;;;9.93;100.00;100655.44;5024889;28;20037;-63
2023/09/23 01:20:44;;;;;;;30.13;22.95;;;;;;;9.92;100.00;100659.38;5030490;28;20049;-62
2023/09/23 01:23:10;;;;;;;30.27;24.50;;;;;;;9.92;100.00;100651.06;5013322;28;20030;-62
2023/09/23 01:25:37;;;;;;;28.52;23.10;;;;;;;9.92;100.00;100665.69;5019390;28;20033;-63
2023/09/23 01:28:12;;;;;;;29.38;22.63;;;;;;;9.97;100.00;100667.53;5014596;28;20112;-62
2023/09/23 01:30:39;;;;;;;28.55;22.30;;;;;;;9.96;100.00;100675.03;5033963;28;20017;-62
2023/09/23 01:33:08;;;;;;;28.33;22.23;;;;;;;9.96;100.00;100675.03;5025789;28;20125;-62
2023/09/23 01:35:34;;;;;;;29.05;22.48;;;;;;;9.99;100.00;100679.91;5033170;28;20449;-62
2023/09/23 01:38:06;;;;;;;27.38;22.10;;;;;;;10.03;100.00;100685.66;5020951;28;20029;-62
2023/09/23 01:40:33;;;;;;;27.83;21.45;;;;;;;10.07;100.00;100675.63;5019943;28;20059;-62
2023/09/23 01:42:59;;;;;;;27.63;21.00;;;;;;;10.08;100.00;100685.56;5016990;28;20021;-62
2023/09/23 01:45:25;;;;;;;27.05;20.70;;;;;;;10.08;100.00;100691.09;5021466;28;20060;-62
2023/09/23 01:47:52;;;;;;;26.65;20.15;;;;;;;10.12;100.00;100689.34;5028564;28;20061;-62
2023/09/23 01:50:18;;;;;;;25.65;19.70;;;;;;;10.15;100.00;100691.50;5029588;28;20465;-62
2023/09/23 01:52:45;;;;;;;26.88;20.10;;;;;;;10.16;100.00;100695.06;5031703;28;20037;-62
2023/09/23 01:55:12;;;;;;;25.27;19.15;;;;;;;10.21;100.00;100692.22;5020758;28;20080;-62
2023/09/23 01:57:38;;;;;;;25.60;19.02;;;;;;;10.27;100.00;100692.94;5031712;28;20113;-62
2023/09/23 02:00:04;;;;;;;25.88;19.10;;;;;;;10.25;100.00;100690.47;5014021;28;20553;-62
2023/09/23 02:02:30;;;;;;;25.30;18.33;;;;;;;10.27;100.00;100684.63;5019059;28;20100;-64
2023/09/23 02:04:56;;;;;;;24.95;17.92;;;;;;;10.27;100.00;100693.75;5026305;28;20121;-62
2023/09/23 02:07:21;;;;;;;23.75;17.73;;;;;;;10.24;100.00;100697.13;5033777;28;20032;-62
2023/09/23 02:09:47;;;;;;;23.60;17.98;;;;;;;10.26;100.00;100696.81;5011021;28;20446;-62
2023/09/23 02:12:14;;;;;;;23.73;17.38;;;;;;;10.25;100.00;100700.72;5018176;28;20040;-62
2023/09/23 02:14:40;;;;;;;23.10;17.27;;;;;;;10.24;100.00;100702.66;5032837;28;20022;-63
2023/09/23 02:17:05;;;;;;;23.20;16.73;;;;;;;10.20;100.00;100706.34;5030263;28;20037;-63
2023/09/23 02:19:30;;;;;;;22.52;17.35;;;;;;;10.22;100.00;100710.44;5024378;28;20033;-63
2023/09/23 02:21:56;;;;;;;23.63;17.38;;;;;;;10.20;100.00;100715.47;5025670;28;20036;-63
2023/09/23 02:24:22;;;;;;;23.65;16.73;;;;;;;10.17;100.00;100716.06;5030699;28;20029;-63
2023/09/23 02:26:48;;;;;;;22.98;16.40;;;;;;;10.15;100.00;100710.84;5015644;28;20030;-63
2023/09/23 02:29:14;;;;;;;22.58;16.02;;;;;;;10.14;100.00;100728.56;5013366;28;20116;-63
2023/09/23 02:31:46;;;;;;;25.27;16.95;;;;;;;10.09;100.00;100720.38;5029860;28;20081;-63
2023/09/23 02:34:11;;;;;;;23.25;17.05;;;;;;;10.07;100.00;100719.03;5017739;28;20103;-63
2023/09/23 02:36:37;;;;;;;23.25;16.70;;;;;;;10.04;100.00;100725.19;5019859;28;20474;-63
2023/09/23 02:39:04;;;;;;;23.88;16.60;;;;;;;10.01;100.00;100731.31;5024431;28;20056;-63
2023/09/23 02:41:30;;;;;;;23.60;16.50;;;;;;;9.94;100.00;100734.47;5017179;28;20017;-63
2023/09/23 02:43:55;;;;;;;24.35;16.08;;;;;;;9.89;100.00;100729.84;5032910;28;20029;-63
2023/09/23 02:46:21;;;;;;;22.33;15.85;;;;;;;9.86;100.00;100744.28;5015413;28;20092;-63
2023/09/23 02:48:47;;;;;;;21.70;16.17;;;;;;;9.81;100.00;100749.91;5030642;28;20029;-63
2023/09/23 02:51:12;;;;;;;23.23;17.13;;;;;;;9.78;100.00;100753.25;5014997;28;20025;-63
2023/09/23 02:53:38;;;;;;;22.42;16.77;;;;;;;9.79;100.00;100754.91;5013849;28;20334;-63
2023/09/23 02:56:07;;;;;;;23.38;17.17;;;;;;;9.77;100.00;100765.47;5021456;28;20033;-62
2023/09/23 02:58:33;;;;;;;24.77;16.60;;;;;;;9.73;100.00;100765.22;5027032;28;20036;-61
2023/09/23 03:01:01;;;;;;;23.20;16.48;;;;;;;9.71;100.00;100759.19;5026962;28;20160;-62
2023/09/23 03:03:27;;;;;;;23.63;16.33;;;;;;;9.68;100.00;100762.56;5028319;28;20022;-61
2023/09/23 03:05:57;;;;;;;23.33;16.83;;;;;;;9.63;100.00;100760.69;5017391;28;20030;-62
2023/09/23 03:08:25;;;;;;;23.65;17.02;;;;;;;9.56;100.00;100765.78;5011303;28;20460;-62
2023/09/23 03:10:52;;;;;;;23.23;17.02;;;;;;;9.56;100.00;100762.19;5031805;28;20112;-63
2023/09/23 03:13:21;;;;;;;22.45;16.48;;;;;;;9.54;100.00;100770.78;5019911;28;20030;-62
2023/09/23 03:15:52;;;;;;;22.58;16.50;;;;;;;9.53;100.00;100766.38;5016785;28;20029;-62
2023/09/23 03:18:27;;;;;;;22.77;15.80;;;;;;;9.50;100.00;100758.69;5032741;28;20033;-63
2023/09/23 03:20:54;;;;;;;24.50;16.80;;;;;;;9.46;100.00;100766.75;5012642;28;20120;-63
2023/09/23 03:23:20;;;;;;;23.05;15.93;;;;;;;9.45;100.00;100770.63;5028931;28;20034;-62
2023/09/23 03:25:46;;;;;;;21.88;15.82;;;;;;;9.41;100.00;100763.25;5012760;28;20068;-63
2023/09/23 03:28:15;;;;;;;22.20;16.35;;;;;;;9.41;100.00;100769.63;5031560;28;20033;-62
2023/09/23 03:30:43;;;;;;;23.85;15.95;;;;;;;9.40;100.00;100770.72;5027799;28;20030;-62
2023/09/23 03:33:09;;;;;;;23.80;16.90;;;;;;;9.39;100.00;100774.63;5020124;28;20057;-62
2023/09/23 03:35:35;;;;;;;24.63;16.30;;;;;;;9.40;100.00;100776.25;5016477;28;20048;-62
2023/09/23 03:38:00;;;;;;;21.40;15.32;;;;;;;9.41;100.00;100780.66;5023801;28;20389;-62
2023/09/23 03:40:29;;;;;;;21.50;15.40;;;;;;;9.44;100.00;100784.75;5031699;28;20028;-62
2023/09/23 03:42:55;;;;;;;22.00;14.98;;;;;;;9.41;100.00;100786.19;5029202;28;20556;-62
2023/09/23 03:45:20;;;;;;;22.63;15.02;;;;;;;9.39;100.00;100791.19;5028728;28;20041;-62
2023/09/23 03:47:46;;;;;;;22.95;15.80;;;;;;;9.42;100.00;100781.47;5012046;28;20034;-62
2023/09/23 03:50:13;;;;;;;21.48;15.07;;;;;;;9.41;100.00;100788.09;5031007;28;20100;-62
2023/09/23 03:52:38;;;;;;;25.88;15.18;;;;;;;9.38;100.00;100789.53;5017004;28;20046;-61
2023/09/23 03:55:04;;;;;;;21.60;16.05;;;;;;;9.40;100.00;100801.09;5029189;28;20038;-61
2023/09/23 03:57:29;;;;;;;23.17;14.77;;;;;;;9.39;100.00;100791.19;5028027;28;20037;-62
2023/09/23 03:59:55;;;;;;;23.10;16.70;;;;;;;9.38;100.00;100792.28;5026944;28;20515;-62
2023/09/23 04:02:21;;;;;;;22.55;15.40;;;;;;;9.38;100.00;100803.34;5028837;28;20033;-62
2023/09/23 04:04:53;;;;;;;22.27;15.73;;;;;;;9.40;100.00;100809.38;5025508;28;20048;-62
2023/09/23 04:07:22;;;;;;;22.42;15.55;;;;;;;9.41;100.00;100805.50;5020923;28;20113;-62
2023/09/23 04:09:47;;;;;;;24.30;15.65;;;;;;;9.43;100.00;100800.50;5012944;28;20022;-63
2023/09/23 04:12:13;;;;;;;21.35;15.05;;;;;;;9.46;100.00;100801.84;5021277;28;20036;-63
2023/09/23 04:14:38;;;;;;;21.45;14.88;;;;;;;9.47;100.00;100804.31;5013628;28;20026;-62
2023/09/23 04:17:04;;;;;;;22.20;15.27;;;;;;;9.43;100.00;100805.19;5019114;28;20033;-63
2023/09/23 04:19:29;;;;;;;20.98;15.40;;;;;;;9.46;100.00;100810.94;5011574;28;20030;-63
2023/09/23 04:21:55;;;;;;;21.20;16.13;;;;;;;9.44;100.00;100806.84;5025104;28;20057;-62
2023/09/23 04:24:21;;;;;;;22.90;15.20;;;;;;;9.44;100.00;100812.38;5026776;28;20038;-63
2023/09/23 04:26:47;;;;;;;22.85;15.32;;;;;;;9.44;100.00;100812.38;5012212;28;20538;-62
2023/09/23 04:29:12;;;;;;;22.27;14.68;;;;;;;9.41;100.00;100811.03;5011794;28;20034;-63
2023/09/23 04:31:38;;;;;;;22.95;15.07;;;;;;;9.40;100.00;100816.88;5015096;28;20057;-63
2023/09/23 04:34:03;;;;;;;22.35;16.08;;;;;;;9.40;100.00;100827.91;5022381;28;20029;-63
2023/09/23 04:36:28;;;;;;;21.63;15.57;;;;;;;9.36;100.00;100831.25;5027379;28;20033;-62
2023/09/23 04:38:54;;;;;;;21.20;16.15;;;;;;;9.35;100.00;100834.31;5020109;28;20117;-63
2023/09/23 04:41:19;;;;;;;22.38;15.70;;;;;;;9.37;100.00;100837.59;5026384;28;20482;-63
2023/09/23 04:43:45;;;;;;;22.35;15.13;;;;;;;9.35;100.00;100837.91;5017111;28;20034;-63
2023/09/23 04:46:14;;;;;;;23.80;15.35;;;;;;;9.35;100.00;100842.59;5013755;28;20030;-63
2023/09/23 04:48:40;;;;;;;21.23;14.60;;;;;;;9.35;100.00;100843.41;5011937;28;20457;-63
2023/09/23 04:51:08;;;;;;;21.17;14.48;;;;;;;9.32;100.00;100854.25;5028967;28;20029;-62
2023/09/23 04:53:33;;;;;;;21.50;14.75;;;;;;;9.31;100.00;100847.88;5025957;28;20034;-63
2023/09/23 04:55:59;;;;;;;24.08;15.88;;;;;;;9.29;100.00;100846.53;5019419;28;20034;-63
2023/09/23 04:58:24;;;;;;;22.67;14.88;;;;;;;9.28;100.00;100854.00;5029005;28;20029;-64
2023/09/23 05:00:51;;;;;;;21.20;15.73;;;;;;;9.24;100.00;100850.19;5023249;28;20458;-64
2023/09/23 05:03:17;;;;;;;23.58;16.15;;;;;;;9.27;100.00;100852.38;5018878;28;20546;-63
2023/09/23 05:05:42;;;;;;;23.00;16.17;;;;;;;9.28;100.00;100853.19;5034065;28;20033;-63
2023/09/23 05:08:10;;;;;;;21.52;14.93;;;;;;;9.29;100.00;100861.19;5016190;28;20030;-62
2023/09/23 05:10:35;;;;;;;23.10;15.55;;;;;;;9.29;100.00;100863.09;5029000;28;20041;-63
2023/09/23 05:13:00;;;;;;;22.92;15.48;;;;;;;9.31;100.00;100860.88;5025783;28;20030;-63
2023/09/23 05:15:26;;;;;;;21.10;15.35;;;;;;;9.36;100.00;100871.84;5034125;28;20035;-62
2023/09/23 05:17:54;;;;;;;21.15;15.65;;;;;;;9.30;100.00;100875.78;5028380;28;20036;-63
2023/09/23 05:20:21;;;;;;;22.70;16.08;;;;;;;9.29;100.00;100885.19;5015087;28;20415;-63
2023/09/23 05:22:47;;;;;;;24.08;15.63;;;;;;;9.32;100.00;100895.66;5026147;28;20045;-63
2023/09/23 05:25:13;;;;;;;22.52;16.02;;;;;;;9.33;100.00;100900.88;5034647;28;20033;-63
2023/09/23 05:27:39;;;;;;;22.60;16.13;;;;;;;9.36;100.00;100913.25;5033721;28;20480;-63
2023/09/23 05:30:10;;;;;;;23.33;16.58;;;;;;;9.35;100.00;100911.63;5022564;28;20393;-63
2023/09/23 05:32:38;;;;;;;23.30;16.30;;;;;;;9.34;100.00;100919.06;5034315;28;20132;-63
2023/09/23 05:35:09;;;;;;;24.25;16.42;;;;;;;9.35;100.00;100914.41;5016902;28;20030;-63
2023/09/23 05:37:34;;;;;;;22.98;15.65;;;;;;;9.33;100.00;100917.44;5030062;28;20056;-63
2023/09/23 05:40:00;;;;;;;22.77;15.52;;;;;;;9.40;100.00;100919.03;5028526;28;20105;-63
2023/09/23 05:42:26;;;;;;;23.17;15.13;;;;;;;9.39;100.00;100920.13;5008557;28;20424;-63
2023/09/23 05:44:51;;;;;;;24.60;15.60;;;;;;;9.39;100.00;100931.19;5017636;28;20029;-61
2023/09/23 05:47:17;;;;;;;23.05;15.32;;;;;;;9.42;100.00;100934.16;5021954;28;20080;-62
2023/09/23 05:49:45;;;;;;;21.58;15.23;;;;;;;9.42;100.00;100939.69;5030373;28;20029;-63
2023/09/23 05:52:11;;;;;;;22.38;14.98;;;;;;;9.41;100.00;100938.03;5033760;28;20038;-63
2023/09/23 05:54:37;;;;;;;22.50;15.38;;;;;;;9.39;100.00;100943.03;5029460;28;20124;-63
2023/09/23 05:57:02;;;;;;;22.40;15.00;;;;;;;9.42;100.00;100947.97;5033657;28;20295;-63
2023/09/23 05:59:28;;;;;;;22.38;14.60;;;;;;;9.43;100.00;100948.78;5033743;28;20108;-64
2023/09/23 06:01:53;;;;;;;23.90;14.65;;;;;;;9.46;100.00;100953.72;5019236;28;20029;-64
2023/09/23 06:04:19;;;;;;;23.73;14.98;;;;;;;9.50;100.00;100961.13;5018465;28;20034;-64
2023/09/23 06:06:44;;;;;;;24.13;14.05;;;;;;;9.57;100.00;100965.44;5026005;28;20033;-64
2023/09/23 06:09:09;;;;;;;20.80;14.25;;;;;;;9.59;100.00;100974.28;5028134;28;20061;-63
2023/09/23 06:11:35;;;;;;;20.27;14.15;;;;;;;9.65;100.00;100975.84;5024086;28;20029;-64
2023/09/23 06:14:00;;;;;;;22.60;14.35;;;;;;;9.65;100.00;100981.34;5031271;28;20025;-63
2023/09/23 06:16:26;;;;;;;20.52;13.93;;;;;;;9.64;100.00;100983.31;5024122;28;20032;-63
2023/09/23 06:18:51;;;;;;;21.38;13.95;;;;;;;9.64;100.00;100993.53;5014178;28;20026;-63
2023/09/23 06:21:17;;;;;;;22.75;14.10;;;;;;;9.66;100.00;100997.66;5020577;28;20026;-63
2023/09/23 06:23:43;;;;;;;23.40;13.80;;;;;;;9.70;100.00;100988.75;5029868;28;20037;-63
2023/09/23 06:26:10;;;;;;;21.55;14.10;;;;;;;9.74;100.00;100998.91;5017455;28;20115;-62
2023/09/23 06:28:36;;;;;;;20.70;14.13;;;;;;;9.75;100.00;101011.63;5024775;28;20323;-63
2023/09/23 06:31:02;;;;;;;22.17;14.52;;;;;;;9.77;100.00;101014.91;5025034;28;20033;-62
2023/09/23 06:33:28;;;;;;;21.65;14.38;;;;;;;9.80;100.00;101019.00;5033156;28;20029;-63
2023/09/23 06:35:53;;;;;;;21.92;14.13;;;;;;;9.81;100.00;101015.13;5028106;28;20034;-62
2023/09/23 06:38:18;;;;;;;20.80;14.02;;;;;;;9.87;100.00;101021.41;5033028;28;20029;-62
2023/09/23 06:40:43;;;;;;;22.40;14.70;;;;;;;9.91;100.00;101025.25;5017992;28;20018;-62
2023/09/23 06:43:09;;;;;;;21.48;14.35;;;;;;;9.95;100.00;101040.94;5024569;28;20028;-63
2023/09/23 06:45:35;;;;;;;22.05;14.35;;;;;;;10.00;100.00;101034.50;5017851;28;20034;-63
2023/09/23 06:48:01;;;;;;;22.00;14.32;;;;;;;10.01;100.00;101035.31;5019308;28;20032;-63
2023/09/23 06:50:27;;;;;;;21.05;14.27;;;;;;;10.12;100.00;101036.81;5022471;28;20500;-63
2023/09/23 06:52:52;;;;;;;24.83;14.63;;;;;;;10.15;100.00;101039.81;5028820;28;20108;-63
2023/09/23 06:55:17;;;;;;;21.88;14.52;;;;;;;10.19;100.00;101036.47;5021280;28;20471;-63
2023/09/23 06:57:43;;;;;;;24.08;15.25;;;;;;;10.24;100.00;101045.50;5032519;28;20056;-63
2023/09/23 07:00:08;;;;;;;22.75;14.82;;;;;;;10.34;100.00;101043.72;5024272;28;20028;-63
2023/09/23 07:02:34;;;;;;;22.88;15.30;;;;;;;10.40;100.00;101046.09;5020917;28;20418;-63
2023/09/23 07:05:00;;;;;;;22.65;15.38;;;;;;;10.42;100.00;101037.53;5019158;28;20040;-63
2023/09/23 07:07:26;;;;;;;22.42;15.10;;;;;;;10.52;100.00;101050.38;5013155;28;20030;-63
2023/09/23 07:09:52;;;;;;;23.15;14.45;;;;;;;10.56;100.00;101052.22;5022523;28;20080;-63
2023/09/23 07:12:17;;;;;;;21.17;14.52;;;;;;;10.67;100.00;101058.44;5014174;28;20505;-63
2023/09/23 07:14:42;;;;;;;22.60;14.80;;;;;;;10.74;100.00;101060.78;5032702;28;20045;-63
2023/09/23 07:17:08;;;;;;;22.67;14.30;;;;;;;10.86;100.00;101072.22;5014361;28;20049;-64
2023/09/23 07:19:34;;;;;;;22.58;14.80;;;;;;;10.95;100.00;101072.38;5031942;28;20064;-64
2023/09/23 07:22:00;;;;;;;20.33;14.50;;;;;;;11.04;100.00;101076.09;5018868;28;20049;-64
2023/09/23 07:24:26;;;;;;;22.45;14.60;;;;;;;11.04;100.00;101078.00;5012729;28;20034;-63
2023/09/23 07:26:55;;;;;;;20.02;14.38;;;;;;;11.19;100.00;101085.22;5023889;28;20066;-64
2023/09/23 07:29:20;;;;;;;20.67;14.15;;;;;;;11.29;100.00;101092.56;5020406;28;20041;-63
2023/09/23 07:31:46;;;;;;;21.45;14.38;;;;;;;11.43;100.00;101104.47;5022915;28;20042;-63
2023/09/23 07:34:11;;;;;;;21.77;14.68;;;;;;;11.52;100.00;101104.59;5018420;28;20541;-61
2023/09/23 07:36:37;;;;;;;20.95;13.90;;;;;;;11.59;100.00;101102.22;5031737;28;20029;-63
2023/09/23 07:39:02;;;;;;;21.55;14.43;;;;;;;11.68;100.00;101102.31;5020104;28;20045;-62
2023/09/23 07:41:27;;;;;;;22.83;14.48;;;;;;;11.78;100.00;101115.97;5031150;28;20049;-64
2023/09/23 07:43:52;;;;;;;20.65;14.10;;;;;;;11.89;100.00;101108.28;5020365;28;20390;-63
2023/09/23 07:46:18;;;;;;;23.92;14.35;;;;;;;11.96;100.00;101116.16;5021188;28;20056;-63
2023/09/23 07:48:44;;;;;;;21.40;13.73;;;;;;;12.01;100.00;101119.69;5020599;28;20065;-63
2023/09/23 07:51:09;;;;;;;22.20;13.70;;;;;;;12.01;100.00;101119.69;5021614;28;20025;-63
2023/09/23 07:53:35;;;;;;;22.52;14.98;;;;;;;12.08;100.00;101121.25;5019873;28;20851;-63
2023/09/23 07:56:00;;;;;;;22.30;14.63;;;;;;;12.14;100.00;101120.81;5023332;28;20038;-63
2023/09/23 07:58:25;;;;;;;22.02;14.55;;;;;;;12.20;100.00;101132.59;5011928;28;20057;-63
2023/09/23 08:00:52;;;;;;;22.45;14.45;;;;;;;12.24;100.00;101125.31;5020024;28;20105;-63
2023/09/23 08:03:17;;;;;;;22.02;14.77;;;;;;;12.28;100.00;101136.63;5022851;28;20496;-63
2023/09/23 08:05:42;;;;;;;21.45;14.13;;;;;;;12.30;100.00;101137.13;5011883;28;20030;-63
2023/09/23 08:08:08;;;;;;;22.63;13.60;;;;;;;12.38;100.00;101138.34;5017064;28;20030;-62
2023/09/23 08:10:33;;;;;;;21.27;13.63;;;;;;;12.40;100.00;101148.00;5024015;28;20072;-62
2023/09/23 08:12:58;;;;;;;21.10;14.27;;;;;;;12.46;100.00;101155.06;5011552;28;20100;-62
2023/09/23 08:15:24;;;;;;;21.35;13.48;;;;;;;12.55;100.00;101157.94;5011890;28;20029;-62
2023/09/23 08:17:49;;;;;;;22.45;14.10;;;;;;;12.60;100.00;101157.81;5011487;28;20026;-63
2023/09/23 08:20:17;;;;;;;21.95;14.20;;;;;;;12.70;100.00;101161.50;5013431;28;20552;-63
2023/09/23 08:22:47;;;;;;;21.70;13.90;;;;;;;12.83;100.00;101157.03;5026152;28;20029;-62
2023/09/23 08:25:17;;;;;;;18.88;13.15;;;;;;;12.95;100.00;101166.44;5014037;28;20041;-63
2023/09/23 08:27:45;;;;;;;22.15;13.10;;;;;;;13.07;100.00;101165.06;5011436;28;20057;-63
2023/09/23 08:30:11;;;;;;;20.45;13.13;;;;;;;13.11;100.00;101169.66;5011245;28;20018;-63
2023/09/23 08:32:37;;;;;;;20.88;12.65;;;;;;;13.22;100.00;101180.53;5011272;28;20125;-63
2023/09/23 08:35:05;;;;;;;20.27;12.77;;;;;;;13.32;100.00;101180.28;5011395;28;20034;-63
2023/09/23 08:37:30;;;;;;;20.13;12.57;;;;;;;13.40;100.00;101185.09;5013179;28;20026;-63
2023/09/23 08:39:56;;;;;;;20.75;12.70;;;;;;;13.51;100.00;101191.19;5015192;28;20084;-62
2023/09/23 08:42:24;;;;;;;19.58;12.80;;;;;;;13.65;100.00;101198.66;5014382;28;20033;-63
2023/09/23 08:44:49;;;;;;;20.23;12.73;;;;;;;13.71;100.00;101202.94;5014411;28;20172;-63
2023/09/23 08:47:17;;;;;;;21.60;12.80;;;;;;;13.77;100.00;101207.22;5014637;28;20133;-62
2023/09/23 08:49:43;;;;;;;20.17;12.55;;;;;;;13.85;100.00;101202.84;5014139;28;20030;-62
2023/09/23 08:52:10;;;;;;;19.17;12.70;;;;;;;13.87;100.00;101209.75;5013883;28;20026;-62
2023/09/23 08:54:36;;;;;;;19.17;11.90;;;;;;;13.91;100.00;101222.97;5022443;28;20026;-63
2023/09/23 08:57:02;;;;;;;20.38;11.85;;;;;;;13.96;100.00;101223.66;5034894;28;20022;-62
2023/09/23 08:59:27;;;;;;;20.73;12.68;;;;;;;14.11;100.00;101229.97;5034598;28;20032;-63
2023/09/23 09:01:54;;;;;;;20.23;11.98;;;;;;;14.26;100.00;101234.28;5034616;28;20025;-62
2023/09/23 09:04:19;;;;;;;19.50;12.00;;;;;;;14.32;100.00;101227.41;5030339;28;20376;-62
2023/09/23 09:06:52;;;;;;;19.02;12.00;;;;;;;14.32;100.00;101227.41;5022655;28;20034;-62
2023/09/23 09:09:17;;;;;;;19.77;11.77;;;;;;;14.33;100.00;101229.88;5029071;28;20096;-63
2023/09/23 09:11:47;;;;;;;22.02;11.80;;;;;;;14.36;100.00;101233.97;5003753;28;20029;-62
2023/09/23 09:14:15;;;;;;;20.45;12.07;;;;;;;14.42;100.00;101246.59;5024428;28;20030;-63
2023/09/23 09:16:40;;;;;;;19.88;12.13;;;;;;;14.44;100.00;101244.34;5024386;28;20026;-63
2023/09/23 09:19:05;;;;;;;19.20;12.15;;;;;;;14.43;100.00;101248.25;5014578;28;20087;-62
2023/09/23 09:21:32;;;;;;;20.52;12.43;;;;;;;14.44;100.00;101244.34;5017846;28;20101;-63
2023/09/23 09:23:58;;;;;;;22.10;12.35;;;;;;;14.42;100.00;101249.41;5027961;28;20025;-63
2023/09/23 09:26:24;;;;;;;20.27;12.38;;;;;;;14.46;100.00;101253.16;5029153;28;20033;-62
2023/09/23 09:28:49;;;;;;;18.58;12.32;;;;;;;14.49;100.00;101255.31;5025020;28;20021;-62
2023/09/23 09:31:19;;;;;;;20.67;12.20;;;;;;;14.48;100.00;101252.84;5028288;28;20046;-62
2023/09/23 09:33:47;;;;;;;19.35;12.07;;;;;;;14.53;100.00;101265.81;5022215;28;20048;-62
2023/09/23 09:36:17;;;;;;;19.25;11.77;;;;;;;14.46;100.00;101272.63;5023398;28;20021;-63
2023/09/23 09:38:43;;;;;;;19.40;11.98;;;;;;;14.40;100.00;101278.69;5026093;28;20108;-62
2023/09/23 09:41:16;;;;;;;21.40;12.20;;;;;;;14.39;100.00;101280.66;5021892;28;20155;-62
2023/09/23 09:43:44;;;;;;;19.63;11.60;;;;;;;14.39;100.00;101277.88;5028074;28;20022;-62
2023/09/23 09:46:11;;;;;;;18.63;11.65;;;;;;;14.53;100.00;101279.72;5026723;28;20047;-62
2023/09/23 09:48:41;;;;;;;19.02;12.07;;;;;;;14.66;100.00;101284.34;5030079;28;20022;-62
2023/09/23 09:51:07;;;;;;;19.77;11.48;;;;;;;14.81;100.00;101285.88;5029232;28;20022;-62
2023/09/23 09:53:36;;;;;;;19.08;11.57;;;;;;;14.83;100.00;101283.59;5024976;28;20176;-63
2023/09/23 09:56:03;;;;;;;19.80;12.20;;;;;;;14.81;100.00;101288.66;5024697;28;20045;-63
2023/09/23 09:58:38;;;;;;;19.55;11.85;;;;;;;14.80;100.00;101290.63;5021798;28;20040;-63
2023/09/23 10:01:06;;;;;;;19.02;11.98;;;;;;;14.74;100.00;101300.28;5021860;28;20034;-63
2023/09/23 10:03:36;;;;;;;19.90;12.20;;;;;;;14.74;100.00;101293.88;5017999;28;20036;-62
2023/09/23 10:06:02;;;;;;;19.98;12.48;;;;;;;14.78;100.00;101298.50;5023866;28;20026;-62
2023/09/23 10:08:38;;;;;;;19.02;12.05;;;;;;;14.78;100.00;101283.75;5012475;28;20022;-62
2023/09/23 10:11:08;;;;;;;18.20;11.57;;;;;;;14.82;100.00;101293.09;5022929;28;20025;-62
2023/09/23 10:13:33;;;;;;;18.70;11.98;;;;;;;14.79;100.00;101291.78;5032628;28;20163;-64
2023/09/23 10:16:02;;;;;;;20.40;11.95;;;;;;;14.81;100.00;101308.16;5024887;28;20534;-62
2023/09/23 10:18:37;;;;;;;18.75;11.13;;;;;;;14.83;100.00;101305.88;5013446;28;20033;-62
2023/09/23 10:21:03;;;;;;;21.77;11.70;;;;;;;14.86;100.00;101313.59;5017260;28;20468;-62
2023/09/23 10:23:35;;;;;;;19.42;11.15;;;;;;;14.90;100.00;101309.00;5029751;28;20040;-62
2023/09/23 10:26:23;;;;;;;18.15;11.13;;;;;;;15.00;100.00;101312.63;5024077;28;20056;-62
2023/09/23 10:29:04;;;;;;;19.50;11.40;;;;;;;15.08;100.00;101312.66;5016651;28;20038;-63
2023/09/23 10:31:34;;;;;;;19.50;12.57;;;;;;;15.15;100.00;101319.69;5012160;28;20095;-62
2023/09/23 10:34:06;;;;;;;20.30;12.55;;;;;;;15.25;100.00;101323.00;5012625;28;20025;-62
2023/09/23 10:36:32;;;;;;;20.70;13.07;;;;;;;15.31;100.00;101325.63;5012383;28;20029;-63
2023/09/23 10:38:59;;;;;;;21.95;12.25;;;;;;;15.34;100.00;101319.41;5012624;28;20022;-62
2023/09/23 10:41:35;;;;;;;19.33;11.90;;;;;;;15.36;100.00;101328.22;5012175;28;20378;-62
2023/09/23 10:44:03;;;;;;;18.45;11.93;;;;;;;15.35;100.00;101321.84;5012150;28;20026;-61
2023/09/23 10:46:30;;;;;;;20.55;12.55;;;;;;;15.37;100.00;101333.50;5020976;28;20037;-62
2023/09/23 10:48:55;;;;;;;19.15;12.40;;;;;;;15.41;100.00;101339.25;5020780;28;20045;-62
2023/09/23 10:51:21;;;;;;;20.48;12.50;;;;;;;15.46;100.00;101336.28;5022283;28;20118;-62
2023/09/23 10:53:47;;;;;;;18.35;11.65;;;;;;;15.49;100.00;101340.41;5022826;28;20034;-63
2023/09/23 10:56:13;;;;;;;19.10;12.13;;;;;;;15.39;100.00;101342.38;5021276;28;20075;-63
2023/09/23 10:58:38;;;;;;;20.15;12.85;;;;;;;15.37;100.00;101344.66;5008268;28;20146;-63
2023/09/23 11:01:05;;;;;;;19.90;12.35;;;;;;;15.33;100.00;101352.00;5024817;28;20109;-63
2023/09/23 11:03:36;;;;;;;20.88;12.85;;;;;;;15.27;100.00;101347.75;5022487;28;20515;-63